sensor_id;sensor_type;location;lat;lon;timestamp;pressure;altitude;pressure_sealevel;temperature;humidity
24486;BME280;13449;49.374;8.584;2023-02-20T00:02:12;101647.88;;;7.90;100.00
24486;BME280;13449;49.374;8.584;2023-02-20T00:04:45;101657.75;;;7.91;100.00
24486;BME280;13449;49.374;8.584;2023-02-20T00:07:12;101661.47;;;7.90;100.00
24486;BME280;13449;49.374;8.584;2023-02-20T00:09:41;101666.50;;;7.94;100.00
24486;BME280;13449;49.374;8.584;2023-02-20T00:12:07;101671.47;;;7.99;100.00
24486;BME280;13449;49.374;8.584;2023-02-20T00:14:36;101667.94;;;8.08;100.00
24486;BME280;13449;49.374;8.584;2023-02-20T00:17:06;101669.81;;;8.17;100.00
24486;BME280;13449;49.374;8.584;2023-02-20T00:19:32;101668.38;;;8.13;100.00
24486;BME280;13449;49.374;8.584;2023-02-20T00:21:58;101664.22;;;8.09;100.00
24486;BME280;13449;49.374;8.584;2023-02-20T00:24:25;101660.06;;;8.05;100.00
24486;BME280;13449;49.374;8.584;2023-02-20T00:26:52;101667.06;;;7.98;100.00
24486;BME280;13449;49.374;8.584;2023-02-20T00:29:21;101670.19;;;7.93;100.00
24486;BME280;13449;49.374;8.584;2023-02-20T00:31:53;101659.75;;;7.89;100.00
24486;BME280;13449;49.374;8.584;2023-02-20T00:34:21;101664.47;;;7.87;100.00
24486;BME280;13449;49.374;8.584;2023-02-20T00:36:48;101654.59;;;7.76;100.00
24486;BME280;13449;49.374;8.584;2023-02-20T00:39:14;101666.97;;;7.69;100.00
24486;BME280;13449;49.374;8.584;2023-02-20T00:41:41;101663.09;;;7.62;100.00
24486;BME280;13449;49.374;8.584;2023-02-20T00:44:08;101664.66;;;7.55;100.00
24486;BME280;13449;49.374;8.584;2023-02-20T00:46:34;101659.03;;;7.47;100.00
24486;BME280;13449;49.374;8.584;2023-02-20T00:49:00;101661.91;;;7.45;100.00
24486;BME280;13449;49.374;8.584;2023-02-20T00:51:27;101659.28;;;7.34;100.00
24486;BME280;13449;49.374;8.584;2023-02-20T00:53:56;101654.94;;;7.22;100.00
24486;BME280;13449;49.374;8.584;2023-02-20T00:56:23;101654.31;;;7.09;100.00
24486;BME280;13449;49.374;8.584;2023-02-20T00:58:52;101652.53;;;6.98;100.00
24486;BME280;13449;49.374;8.584;2023-02-20T01:01:18;101652.09;;;6.93;100.00
24486;BME280;13449;49.374;8.584;2023-02-20T01:03:45;101656.00;;;6.79;100.00
24486;BME280;13449;49.374;8.584;2023-02-20T01:06:11;101663.91;;;6.71;100.00
24486;BME280;13449;49.374;8.584;2023-02-20T01:08:43;101663.00;;;6.61;100.00
24486;BME280;13449;49.374;8.584;2023-02-20T01:11:10;101663.66;;;6.54;100.00
24486;BME280;13449;49.374;8.584;2023-02-20T01:13:39;101654.94;;;6.50;100.00
24486;BME280;13449;49.374;8.584;2023-02-20T01:16:06;101659.03;;;6.45;100.00
24486;BME280;13449;49.374;8.584;2023-02-20T01:18:33;101652.66;;;6.35;100.00
24486;BME280;13449;49.374;8.584;2023-02-20T01:21:01;101667.00;;;6.25;100.00
24486;BME280;13449;49.374;8.584;2023-02-20T01:23:37;101659.91;;;6.13;100.00
24486;BME280;13449;49.374;8.584;2023-02-20T01:26:11;101652.41;;;6.06;100.00
24486;BME280;13449;49.374;8.584;2023-02-20T01:28:43;101653.66;;;6.02;100.00
24486;BME280;13449;49.374;8.584;2023-02-20T01:31:19;101656.28;;;5.92;100.00
24486;BME280;13449;49.374;8.584;2023-02-20T01:33:59;101655.28;;;5.82;100.00
24486;BME280;13449;49.374;8.584;2023-02-20T01:36:29;101660.84;;;5.80;100.00
24486;BME280;13449;49.374;8.584;2023-02-20T01:39:09;101659.09;;;5.79;100.00
24486;BME280;13449;49.374;8.584;2023-02-20T01:42:11;101655.94;;;5.63;100.00
24486;BME280;13449;49.374;8.584;2023-02-20T01:44:43;101649.03;;;5.59;100.00
24486;BME280;13449;49.374;8.584;2023-02-20T01:47:23;101659.25;;;5.56;100.00
24486;BME280;13449;49.374;8.584;2023-02-20T01:49:51;101645.63;;;5.46;100.00
24486;BME280;13449;49.374;8.584;2023-02-20T01:52:26;101659.41;;;5.43;100.00
24486;BME280;13449;49.374;8.584;2023-02-20T01:54:58;101662.50;;;5.39;100.00
24486;BME280;13449;49.374;8.584;2023-02-20T01:57:29;101647.59;;;5.33;100.00
24486;BME280;13449;49.374;8.584;2023-02-20T02:00:13;101650.91;;;5.36;100.00
24486;BME280;13449;49.374;8.584;2023-02-20T02:02:47;101652.03;;;5.23;100.00
24486;BME280;13449;49.374;8.584;2023-02-20T02:05:16;101644.28;;;5.18;100.00
24486;BME280;13449;49.374;8.584;2023-02-20T02:07:44;101649.44;;;5.21;100.00
24486;BME280;13449;49.374;8.584;2023-02-20T02:10:19;101640.50;;;5.10;100.00
24486;BME280;13449;49.374;8.584;2023-02-20T02:12:52;101634.34;;;5.08;100.00
24486;BME280;13449;49.374;8.584;2023-02-20T02:15:21;101640.97;;;5.04;100.00
24486;BME280;13449;49.374;8.584;2023-02-20T02:27:16;101635.06;;;4.87;100.00
24486;BME280;13449;49.374;8.584;2023-02-20T02:35:58;101627.94;;;4.75;100.00
24486;BME280;13449;49.374;8.584;2023-02-20T02:44:02;101615.13;;;4.66;100.00
24486;BME280;13449;49.374;8.584;2023-02-20T02:49:24;101611.31;;;4.58;100.00
24486;BME280;13449;49.374;8.584;2023-02-20T02:51:55;101619.31;;;4.59;100.00
24486;BME280;13449;49.374;8.584;2023-02-20T02:54:25;101609.38;;;4.60;100.00
24486;BME280;13449;49.374;8.584;2023-02-20T02:57:18;101624.44;;;4.51;100.00
24486;BME280;13449;49.374;8.584;2023-02-20T02:59:48;101616.72;;;4.58;100.00
24486;BME280;13449;49.374;8.584;2023-02-20T03:02:18;101612.75;;;4.51;100.00
24486;BME280;13449;49.374;8.584;2023-02-20T03:04:48;101617.56;;;4.58;100.00
24486;BME280;13449;49.374;8.584;2023-02-20T03:07:17;101610.06;;;4.51;100.00
24486;BME280;13449;49.374;8.584;2023-02-20T03:09:52;101615.00;;;4.57;100.00
24486;BME280;13449;49.374;8.584;2023-02-20T03:12:21;101609.00;;;4.53;100.00
24486;BME280;13449;49.374;8.584;2023-02-20T03:15:01;101621.97;;;4.48;100.00
24486;BME280;13449;49.374;8.584;2023-02-20T03:20:42;101615.84;;;4.46;100.00
24486;BME280;13449;49.374;8.584;2023-02-20T03:23:34;101622.59;;;4.52;100.00
24486;BME280;13449;49.374;8.584;2023-02-20T03:26:10;101615.34;;;4.52;100.00
24486;BME280;13449;49.374;8.584;2023-02-20T03:28:53;101615.47;;;4.51;100.00
24486;BME280;13449;49.374;8.584;2023-02-20T03:31:29;101601.09;;;4.50;100.00
24486;BME280;13449;49.374;8.584;2023-02-20T03:34:07;101605.28;;;4.54;100.00
24486;BME280;13449;49.374;8.584;2023-02-20T03:37:11;101598.63;;;4.47;100.00
24486;BME280;13449;49.374;8.584;2023-02-20T03:40:02;101597.44;;;4.62;100.00
24486;BME280;13449;49.374;8.584;2023-02-20T03:42:50;101597.44;;;4.62;100.00
24486;BME280;13449;49.374;8.584;2023-02-20T03:45:38;101598.56;;;4.60;100.00
24486;BME280;13449;49.374;8.584;2023-02-20T03:48:21;101597.44;;;4.62;100.00
24486;BME280;13449;49.374;8.584;2023-02-20T03:50:49;101589.97;;;4.66;100.00
24486;BME280;13449;49.374;8.584;2023-02-20T03:53:16;101596.59;;;4.62;100.00
24486;BME280;13449;49.374;8.584;2023-02-20T03:55:44;101601.91;;;4.85;100.00
24486;BME280;13449;49.374;8.584;2023-02-20T03:58:14;101599.56;;;4.81;100.00
24486;BME280;13449;49.374;8.584;2023-02-20T04:00:44;101603.00;;;4.83;100.00
24486;BME280;13449;49.374;8.584;2023-02-20T04:03:15;101607.66;;;4.81;100.00
24486;BME280;13449;49.374;8.584;2023-02-20T04:05:44;101611.97;;;4.83;100.00
24486;BME280;13449;49.374;8.584;2023-02-20T04:08:26;101620.72;;;4.98;100.00
24486;BME280;13449;49.374;8.584;2023-02-20T04:13:31;101623.88;;;4.81;100.00
24486;BME280;13449;49.374;8.584;2023-02-20T04:16:00;101633.97;;;4.90;100.00
24486;BME280;13449;49.374;8.584;2023-02-20T04:18:28;101623.25;;;4.77;100.00
24486;BME280;13449;49.374;8.584;2023-02-20T04:20:58;101616.63;;;4.93;100.00
24486;BME280;13449;49.374;8.584;2023-02-20T04:23:28;101621.16;;;4.81;100.00
24486;BME280;13449;49.374;8.584;2023-02-20T04:26:00;101628.31;;;4.82;100.00
24486;BME280;13449;49.374;8.584;2023-02-20T04:28:28;101624.13;;;4.89;100.00
24486;BME280;13449;49.374;8.584;2023-02-20T04:30:56;101631.88;;;4.82;100.00
24486;BME280;13449;49.374;8.584;2023-02-20T04:33:22;101624.75;;;4.81;100.00
24486;BME280;13449;49.374;8.584;2023-02-20T04:35:52;101618.47;;;4.81;100.00
24486;BME280;13449;49.374;8.584;2023-02-20T04:38:20;101621.31;;;4.79;100.00
24486;BME280;13449;49.374;8.584;2023-02-20T04:40:46;101617.38;;;4.83;100.00
24486;BME280;13449;49.374;8.584;2023-02-20T04:43:15;101611.97;;;4.83;100.00
24486;BME280;13449;49.374;8.584;2023-02-20T04:45:42;101618.47;;;4.81;100.00
24486;BME280;13449;49.374;8.584;2023-02-20T04:48:09;101615.41;;;4.74;100.00
24486;BME280;13449;49.374;8.584;2023-02-20T04:50:36;101612.31;;;4.68;100.00
24486;BME280;13449;49.374;8.584;2023-02-20T04:53:03;101606.16;;;4.66;100.00
24486;BME280;13449;49.374;8.584;2023-02-20T04:55:29;101600.50;;;4.69;100.00
24486;BME280;13449;49.374;8.584;2023-02-20T04:57:56;101612.78;;;4.62;100.00
24486;BME280;13449;49.374;8.584;2023-02-20T05:00:25;101608.59;;;4.58;100.00
24486;BME280;13449;49.374;8.584;2023-02-20T05:02:52;101614.59;;;4.50;100.00
24486;BME280;13449;49.374;8.584;2023-02-20T05:05:25;101609.81;;;4.54;100.00
24486;BME280;13449;49.374;8.584;2023-02-20T05:10:22;101618.31;;;4.49;100.00
24486;BME280;13449;49.374;8.584;2023-02-20T05:12:51;101626.66;;;4.46;100.00
24486;BME280;13449;49.374;8.584;2023-02-20T05:15:22;101632.16;;;4.45;100.00
24486;BME280;13449;49.374;8.584;2023-02-20T05:17:48;101620.84;;;4.39;100.00
24486;BME280;13449;49.374;8.584;2023-02-20T05:20:16;101615.56;;;4.38;100.00
24486;BME280;13449;49.374;8.584;2023-02-20T05:22:49;101621.94;;;4.37;100.00
24486;BME280;13449;49.374;8.584;2023-02-20T05:25:16;101634.34;;;4.39;100.00
24486;BME280;13449;49.374;8.584;2023-02-20T05:27:42;101634.81;;;4.33;100.00
24486;BME280;13449;49.374;8.584;2023-02-20T05:30:09;101625.97;;;4.31;100.00
24486;BME280;13449;49.374;8.584;2023-02-20T05:32:37;101625.34;;;4.28;100.00
24486;BME280;13449;49.374;8.584;2023-02-20T05:35:04;101632.94;;;4.23;100.00
24486;BME280;13449;49.374;8.584;2023-02-20T05:37:31;101617.44;;;4.14;100.00
24486;BME280;13449;49.374;8.584;2023-02-20T05:39:59;101619.41;;;4.12;100.00
24486;BME280;13449;49.374;8.584;2023-02-20T05:42:26;101614.22;;;4.09;100.00
24486;BME280;13449;49.374;8.584;2023-02-20T05:44:55;101612.53;;;4.08;100.00
24486;BME280;13449;49.374;8.584;2023-02-20T05:47:21;101617.63;;;4.00;100.00
24486;BME280;13449;49.374;8.584;2023-02-20T05:49:48;101615.56;;;4.03;100.00
24486;BME280;13449;49.374;8.584;2023-02-20T05:52:15;101609.94;;;4.06;100.00
24486;BME280;13449;49.374;8.584;2023-02-20T05:54:41;101614.19;;;3.98;100.00
24486;BME280;13449;49.374;8.584;2023-02-20T05:57:11;101620.34;;;4.00;100.00
24486;BME280;13449;49.374;8.584;2023-02-20T05:59:38;101612.59;;;3.95;100.00
24486;BME280;13449;49.374;8.584;2023-02-20T06:02:05;101612.47;;;3.97;100.00
24486;BME280;13449;49.374;8.584;2023-02-20T06:04:31;101618.94;;;3.94;100.00
24486;BME280;13449;49.374;8.584;2023-02-20T06:06:58;101614.75;;;3.90;100.00
24486;BME280;13449;49.374;8.584;2023-02-20T06:09:27;101621.59;;;3.83;100.00
24486;BME280;13449;49.374;8.584;2023-02-20T06:11:55;101617.31;;;3.80;100.00
24486;BME280;13449;49.374;8.584;2023-02-20T06:14:24;101614.59;;;3.80;100.00
24486;BME280;13449;49.374;8.584;2023-02-20T06:16:51;101611.81;;;3.82;100.00
24486;BME280;13449;49.374;8.584;2023-02-20T06:19:20;101605.78;;;3.78;100.00
24486;BME280;13449;49.374;8.584;2023-02-20T06:21:49;101599.84;;;3.73;100.00
24486;BME280;13449;49.374;8.584;2023-02-20T06:24:17;101611.38;;;3.75;100.00
24486;BME280;13449;49.374;8.584;2023-02-20T06:26:44;101612.38;;;3.74;100.00
24486;BME280;13449;49.374;8.584;2023-02-20T06:29:15;101604.78;;;3.79;100.00
24486;BME280;13449;49.374;8.584;2023-02-20T06:31:42;101614.31;;;3.72;100.00
24486;BME280;13449;49.374;8.584;2023-02-20T06:34:09;101611.50;;;3.74;100.00
24486;BME280;13449;49.374;8.584;2023-02-20T06:36:38;101606.13;;;3.74;100.00
24486;BME280;13449;49.374;8.584;2023-02-20T06:39:06;101613.56;;;3.70;100.00
24486;BME280;13449;49.374;8.584;2023-02-20T06:41:36;101604.91;;;3.78;100.00
24486;BME280;13449;49.374;8.584;2023-02-20T06:44:03;101605.31;;;3.84;100.00
24486;BME280;13449;49.374;8.584;2023-02-20T06:46:40;101610.47;;;3.87;100.00
24486;BME280;13449;49.374;8.584;2023-02-20T06:49:08;101602.75;;;3.94;100.00
24486;BME280;13449;49.374;8.584;2023-02-20T06:51:35;101605.47;;;3.94;100.00
24486;BME280;13449;49.374;8.584;2023-02-20T06:54:10;101611.66;;;4.07;100.00
24486;BME280;13449;49.374;8.584;2023-02-20T06:56:43;101611.53;;;4.09;100.00
24486;BME280;13449;49.374;8.584;2023-02-20T06:59:15;101610.13;;;4.16;100.00
24486;BME280;13449;49.374;8.584;2023-02-20T07:01:44;101614.13;;;4.10;100.00
24486;BME280;13449;49.374;8.584;2023-02-20T07:04:17;101616.00;;;4.21;100.00
24486;BME280;13449;49.374;8.584;2023-02-20T07:06:49;101627.06;;;4.29;100.00
24486;BME280;13449;49.374;8.584;2023-02-20T07:09:17;101625.28;;;4.52;100.00
24486;BME280;13449;49.374;8.584;2023-02-20T07:11:55;101618.75;;;4.43;100.00
24486;BME280;13449;49.374;8.584;2023-02-20T07:14:23;101624.56;;;4.50;100.00
24486;BME280;13449;49.374;8.584;2023-02-20T07:16:53;101623.97;;;4.57;100.00
24486;BME280;13449;49.374;8.584;2023-02-20T07:19:20;101623.22;;;4.55;100.00
24486;BME280;13449;49.374;8.584;2023-02-20T07:21:57;101628.41;;;4.92;100.00
24486;BME280;13449;49.374;8.584;2023-02-20T07:24:28;101631.38;;;4.88;100.00
24486;BME280;13449;49.374;8.584;2023-02-20T07:26:57;101632.13;;;5.02;100.00
24486;BME280;13449;49.374;8.584;2023-02-20T07:29:36;101635.81;;;5.01;100.00
24486;BME280;13449;49.374;8.584;2023-02-20T07:32:10;101641.34;;;5.10;100.00
24486;BME280;13449;49.374;8.584;2023-02-20T07:34:36;101630.66;;;5.31;100.00
24486;BME280;13449;49.374;8.584;2023-02-20T07:37:02;101631.97;;;5.36;100.00
24486;BME280;13449;49.374;8.584;2023-02-20T07:39:29;101636.53;;;5.47;100.00
24486;BME280;13449;49.374;8.584;2023-02-20T07:41:55;101635.75;;;5.67;100.00
24486;BME280;13449;49.374;8.584;2023-02-20T07:44:22;101640.69;;;5.73;100.00
24486;BME280;13449;49.374;8.584;2023-02-20T07:46:51;101643.34;;;5.84;100.00
24486;BME280;13449;49.374;8.584;2023-02-20T07:49:20;101634.72;;;6.02;100.00
24486;BME280;13449;49.374;8.584;2023-02-20T07:51:47;101632.00;;;6.02;100.00
24486;BME280;13449;49.374;8.584;2023-02-20T07:54:19;101632.03;;;6.22;100.00
24486;BME280;13449;49.374;8.584;2023-02-20T07:56:50;101631.16;;;6.33;100.00
24486;BME280;13449;49.374;8.584;2023-02-20T07:59:22;101634.72;;;6.54;100.00
24486;BME280;13449;49.374;8.584;2023-02-20T08:01:49;101630.75;;;6.58;100.00
24486;BME280;13449;49.374;8.584;2023-02-20T08:04:16;101630.59;;;6.60;100.00
24486;BME280;13449;49.374;8.584;2023-02-20T08:06:52;101625.72;;;6.74;100.00
24486;BME280;13449;49.374;8.584;2023-02-20T08:09:19;101622.00;;;6.96;100.00
24486;BME280;13449;49.374;8.584;2023-02-20T08:11:49;101614.47;;;7.09;100.00
24486;BME280;13449;49.374;8.584;2023-02-20T08:14:20;101610.41;;;7.24;100.00
24486;BME280;13449;49.374;8.584;2023-02-20T08:16:47;101612.91;;;7.37;100.00
24486;BME280;13449;49.374;8.584;2023-02-20T08:19:15;101610.66;;;7.52;100.00
24486;BME280;13449;49.374;8.584;2023-02-20T08:21:41;101608.38;;;7.57;100.00
24486;BME280;13449;49.374;8.584;2023-02-20T08:24:13;101600.13;;;7.77;100.00
24486;BME280;13449;49.374;8.584;2023-02-20T08:26:45;101613.03;;;7.95;100.00
24486;BME280;13449;49.374;8.584;2023-02-20T08:29:14;101617.75;;;8.12;100.00
24486;BME280;13449;49.374;8.584;2023-02-20T08:31:44;101605.44;;;8.27;100.00
24486;BME280;13449;49.374;8.584;2023-02-20T08:34:11;101605.47;;;8.46;100.00
24486;BME280;13449;49.374;8.584;2023-02-20T08:36:44;101598.28;;;8.64;99.53
24486;BME280;13449;49.374;8.584;2023-02-20T08:39:11;101592.19;;;8.90;99.15
24486;BME280;13449;49.374;8.584;2023-02-20T08:41:42;101595.59;;;9.11;95.80
24486;BME280;13449;49.374;8.584;2023-02-20T08:44:13;101598.13;;;9.22;93.38
24486;BME280;13449;49.374;8.584;2023-02-20T08:46:47;101579.97;;;9.40;94.07
24486;BME280;13449;49.374;8.584;2023-02-20T08:49:21;101583.94;;;9.46;91.41
24486;BME280;13449;49.374;8.584;2023-02-20T08:51:55;101585.22;;;9.51;90.19
24486;BME280;13449;49.374;8.584;2023-02-20T08:54:22;101596.00;;;9.43;89.11
24486;BME280;13449;49.374;8.584;2023-02-20T08:56:51;101590.00;;;9.40;88.85
24486;BME280;13449;49.374;8.584;2023-02-20T08:59:23;101582.53;;;9.42;88.82
24486;BME280;13449;49.374;8.584;2023-02-20T09:01:52;101582.69;;;9.40;87.89
24486;BME280;13449;49.374;8.584;2023-02-20T09:04:19;101579.66;;;9.43;88.07
24486;BME280;13449;49.374;8.584;2023-02-20T09:06:47;101590.25;;;9.46;87.90
24486;BME280;13449;49.374;8.584;2023-02-20T09:09:14;101577.72;;;9.53;88.08
24486;BME280;13449;49.374;8.584;2023-02-20T09:11:40;101572.69;;;9.58;88.95
24486;BME280;13449;49.374;8.584;2023-02-20T09:14:12;101576.41;;;9.57;88.34
24486;BME280;13449;49.374;8.584;2023-02-20T09:16:44;101570.38;;;9.63;88.62
24486;BME280;13449;49.374;8.584;2023-02-20T09:19:10;101576.81;;;9.62;87.51
24486;BME280;13449;49.374;8.584;2023-02-20T09:21:43;101570.38;;;9.63;88.01
24486;BME280;13449;49.374;8.584;2023-02-20T09:24:16;101572.16;;;9.55;86.97
24486;BME280;13449;49.374;8.584;2023-02-20T09:26:42;101569.25;;;9.56;87.45
24486;BME280;13449;49.374;8.584;2023-02-20T09:29:09;101569.19;;;9.48;86.88
24486;BME280;13449;49.374;8.584;2023-02-20T09:31:36;101569.88;;;9.50;87.30
24486;BME280;13449;49.374;8.584;2023-02-20T09:34:03;101572.59;;;9.50;87.46
24486;BME280;13449;49.374;8.584;2023-02-20T09:36:34;101578.13;;;9.58;87.81
24486;BME280;13449;49.374;8.584;2023-02-20T09:39:01;101578.81;;;9.60;88.03
24486;BME280;13449;49.374;8.584;2023-02-20T09:47:11;101573.72;;;9.75;86.25
24486;BME280;13449;49.374;8.584;2023-02-20T09:49:41;101573.03;;;9.91;86.37
24486;BME280;13449;49.374;8.584;2023-02-20T09:52:12;101565.72;;;10.09;85.36
24486;BME280;13449;49.374;8.584;2023-02-20T09:54:42;101564.28;;;10.14;85.12
24486;BME280;13449;49.374;8.584;2023-02-20T09:57:14;101559.34;;;10.18;83.83
24486;BME280;13449;49.374;8.584;2023-02-20T10:02:36;101535.22;;;10.23;84.23
24486;BME280;13449;49.374;8.584;2023-02-20T10:05:26;101545.81;;;10.26;82.67
24486;BME280;13449;49.374;8.584;2023-02-20T10:07:57;101552.41;;;10.24;82.98
24486;BME280;13449;49.374;8.584;2023-02-20T10:10:32;101534.72;;;10.10;82.66
24486;BME280;13449;49.374;8.584;2023-02-20T10:13:32;101545.34;;;10.31;80.94
24486;BME280;13449;49.374;8.584;2023-02-20T10:19:20;101545.22;;;10.66;81.00
24486;BME280;13449;49.374;8.584;2023-02-20T10:29:56;101533.91;;;10.79;79.77
24486;BME280;13449;49.374;8.584;2023-02-20T10:32:36;101520.78;;;10.82;80.33
24486;BME280;13449;49.374;8.584;2023-02-20T10:35:16;101531.03;;;10.88;78.50
24486;BME280;13449;49.374;8.584;2023-02-20T10:37:57;101517.59;;;10.95;79.52
24486;BME280;13449;49.374;8.584;2023-02-20T10:40:36;101518.72;;;11.18;79.24
24486;BME280;13449;49.374;8.584;2023-02-20T10:46:07;101506.13;;;11.25;78.32
24486;BME280;13449;49.374;8.584;2023-02-20T10:48:41;101509.22;;;11.30;78.17
24486;BME280;13449;49.374;8.584;2023-02-20T10:51:13;101505.34;;;11.49;77.43
24486;BME280;13449;49.374;8.584;2023-02-20T10:59:33;101492.25;;;11.60;76.35
24486;BME280;13449;49.374;8.584;2023-02-20T11:02:12;101489.34;;;11.62;75.14
24486;BME280;13449;49.374;8.584;2023-02-20T11:04:47;101504.91;;;11.70;74.17
24486;BME280;13449;49.374;8.584;2023-02-20T11:07:16;101499.06;;;11.64;74.36
24486;BME280;13449;49.374;8.584;2023-02-20T11:09:49;101498.41;;;11.71;73.86
24486;BME280;13449;49.374;8.584;2023-02-20T11:12:40;101490.41;;;11.77;74.08
24486;BME280;13449;49.374;8.584;2023-02-20T11:15:11;101475.22;;;11.83;74.21
24486;BME280;13449;49.374;8.584;2023-02-20T11:17:40;101495.38;;;11.90;73.49
24486;BME280;13449;49.374;8.584;2023-02-20T11:23:06;101479.34;;;12.03;73.13
24486;BME280;13449;49.374;8.584;2023-02-20T11:25:35;101471.81;;;12.05;73.15
24486;BME280;13449;49.374;8.584;2023-02-20T11:30:57;101470.28;;;12.02;73.15
24486;BME280;13449;49.374;8.584;2023-02-20T11:33:42;101465.81;;;12.18;73.02
24486;BME280;13449;49.374;8.584;2023-02-20T11:36:16;101470.44;;;12.17;72.57
24486;BME280;13449;49.374;8.584;2023-02-20T11:38:47;101454.88;;;12.26;72.60
24486;BME280;13449;49.374;8.584;2023-02-20T11:41:32;101460.50;;;12.24;72.42
24486;BME280;13449;49.374;8.584;2023-02-20T11:44:30;101469.38;;;12.34;70.71
24486;BME280;13449;49.374;8.584;2023-02-20T11:47:24;101453.28;;;12.47;71.52
24486;BME280;13449;49.374;8.584;2023-02-20T11:50:18;101464.56;;;12.52;69.31
24486;BME280;13449;49.374;8.584;2023-02-20T11:53:05;101448.13;;;12.60;71.37
24486;BME280;13449;49.374;8.584;2023-02-20T11:55:34;101468.13;;;12.53;69.30
24486;BME280;13449;49.374;8.584;2023-02-20T11:58:26;101441.28;;;12.56;69.84
24486;BME280;13449;49.374;8.584;2023-02-20T12:00:55;101437.16;;;12.69;70.38
24486;BME280;13449;49.374;8.584;2023-02-20T12:03:28;101433.88;;;12.73;70.55
24486;BME280;13449;49.374;8.584;2023-02-20T12:05:58;101434.22;;;12.78;69.93
24486;BME280;13449;49.374;8.584;2023-02-20T12:11:09;101418.28;;;12.82;69.90
24486;BME280;13449;49.374;8.584;2023-02-20T12:13:45;101417.84;;;13.01;69.69
24486;BME280;13449;49.374;8.584;2023-02-20T12:21:48;101383.41;;;13.15;69.35
24486;BME280;13449;49.374;8.584;2023-02-20T12:24:42;101412.63;;;13.22;67.05
24486;BME280;13449;49.374;8.584;2023-02-20T12:30:05;101411.00;;;13.36;65.18
24486;BME280;13449;49.374;8.584;2023-02-20T12:35:35;101399.88;;;13.37;66.19
24486;BME280;13449;49.374;8.584;2023-02-20T12:40:59;101386.34;;;13.59;66.36
24486;BME280;13449;49.374;8.584;2023-02-20T12:43:45;101389.75;;;13.61;65.22
24486;BME280;13449;49.374;8.584;2023-02-20T12:46:20;101373.22;;;13.69;65.64
24486;BME280;13449;49.374;8.584;2023-02-20T13:00:00;101361.94;;;13.86;64.30
24486;BME280;13449;49.374;8.584;2023-02-20T13:02:38;101368.84;;;13.82;62.76
24486;BME280;13449;49.374;8.584;2023-02-20T13:05:11;101388.50;;;13.86;60.96
24486;BME280;13449;49.374;8.584;2023-02-20T13:07:50;101349.28;;;13.85;63.26
24486;BME280;13449;49.374;8.584;2023-02-20T13:10:29;101354.31;;;13.96;62.09
24486;BME280;13449;49.374;8.584;2023-02-20T13:12:58;101370.94;;;13.95;60.68
24486;BME280;13449;49.374;8.584;2023-02-20T13:18:31;101360.34;;;13.92;60.05
24486;BME280;13449;49.374;8.584;2023-02-20T13:21:12;101378.69;;;14.06;58.37
24486;BME280;13449;49.374;8.584;2023-02-20T13:23:43;101366.06;;;14.05;59.82
24486;BME280;13449;49.374;8.584;2023-02-20T13:29:24;101368.59;;;14.07;59.25
24486;BME280;13449;49.374;8.584;2023-02-20T13:34:42;101384.19;;;14.06;57.96
24486;BME280;13449;49.374;8.584;2023-02-20T13:39:55;101380.50;;;14.14;57.48
24486;BME280;13449;49.374;8.584;2023-02-20T13:42:28;101355.34;;;14.10;57.72
24486;BME280;13449;49.374;8.584;2023-02-20T13:44:55;101377.97;;;14.12;56.69
24486;BME280;13449;49.374;8.584;2023-02-20T13:47:35;101381.38;;;14.14;56.19
24486;BME280;13449;49.374;8.584;2023-02-20T13:50:27;101362.25;;;14.06;57.36
24486;BME280;13449;49.374;8.584;2023-02-20T13:52:55;101349.97;;;14.02;58.42
24486;BME280;13449;49.374;8.584;2023-02-20T13:55:26;101337.09;;;14.02;58.31
24486;BME280;13449;49.374;8.584;2023-02-20T13:57:55;101353.94;;;13.99;56.25
24486;BME280;13449;49.374;8.584;2023-02-20T14:00:43;101355.72;;;14.07;56.20
24486;BME280;13449;49.374;8.584;2023-02-20T14:03:26;101371.06;;;14.16;55.39
24486;BME280;13449;49.374;8.584;2023-02-20T14:06:29;101388.47;;;14.23;53.97
24486;BME280;13449;49.374;8.584;2023-02-20T14:09:09;101375.22;;;14.12;55.48
24486;BME280;13449;49.374;8.584;2023-02-20T14:11:38;101339.47;;;14.06;56.81
24486;BME280;13449;49.374;8.584;2023-02-20T14:14:28;101312.31;;;13.96;58.49
24486;BME280;13449;49.374;8.584;2023-02-20T14:17:23;101331.81;;;14.01;56.36
24486;BME280;13449;49.374;8.584;2023-02-20T14:19:56;101301.72;;;13.93;58.39
24486;BME280;13449;49.374;8.584;2023-02-20T14:22:37;101292.81;;;13.91;57.63
24486;BME280;13449;49.374;8.584;2023-02-20T14:27:39;101293.19;;;13.88;56.43
24486;BME280;13449;49.374;8.584;2023-02-20T14:32:45;101282.16;;;13.81;57.13
24486;BME280;13449;49.374;8.584;2023-02-20T14:40:41;101259.16;;;13.68;57.66
24486;BME280;13449;49.374;8.584;2023-02-20T14:43:20;101241.94;;;13.59;57.95
24486;BME280;13449;49.374;8.584;2023-02-20T14:46:04;101210.47;;;13.55;59.62
24486;BME280;13449;49.374;8.584;2023-02-20T14:48:36;101224.84;;;13.57;58.63
24486;BME280;13449;49.374;8.584;2023-02-20T14:51:13;101225.59;;;13.51;58.80
24486;BME280;13449;49.374;8.584;2023-02-20T14:53:43;101198.09;;;13.44;59.22
24486;BME280;13449;49.374;8.584;2023-02-20T14:56:19;101232.94;;;13.50;57.98
24486;BME280;13449;49.374;8.584;2023-02-20T14:58:45;101220.88;;;13.45;58.69
24486;BME280;13449;49.374;8.584;2023-02-20T15:04:16;101221.59;;;13.39;58.61
24486;BME280;13449;49.374;8.584;2023-02-20T15:06:46;101210.38;;;13.34;59.28
24486;BME280;13449;49.374;8.584;2023-02-20T15:09:15;101215.56;;;13.43;58.17
24486;BME280;13449;49.374;8.584;2023-02-20T15:11:53;101220.09;;;13.36;58.10
24486;BME280;13449;49.374;8.584;2023-02-20T15:14:26;101206.94;;;13.32;57.89
24486;BME280;13449;49.374;8.584;2023-02-20T15:17:18;101209.59;;;13.25;58.40